createdAt,value
2018-09-21T00:00:52.015Z,19.60
2018-09-21T00:03:20.550Z,19.70
2018-09-21T00:05:48.871Z,19.70
2018-09-21T00:08:17.315Z,19.70
2018-09-21T00:10:45.691Z,19.60
2018-09-21T00:13:14.190Z,19.60
2018-09-21T00:15:42.487Z,19.50
2018-09-21T00:18:18.547Z,19.50
2018-09-21T00:20:46.910Z,19.50
2018-09-21T00:23:15.265Z,19.50
2018-09-21T00:25:43.576Z,19.40
2018-09-21T00:28:12.020Z,19.40
2018-09-21T00:30:40.379Z,19.40
2018-09-21T00:33:08.786Z,19.40
2018-09-21T00:35:37.112Z,19.40
2018-09-21T00:38:05.416Z,19.50
2018-09-21T00:40:33.817Z,19.40
2018-09-21T00:43:02.222Z,19.40
2018-09-21T00:45:30.596Z,19.30
2018-09-21T00:47:59.032Z,19.30
2018-09-21T00:50:27.335Z,19.30
2018-09-21T00:52:55.998Z,19.30
2018-09-21T00:55:24.505Z,19.30
2018-09-21T00:57:52.975Z,19.20
2018-09-21T01:00:21.462Z,19.20
2018-09-21T01:02:49.887Z,19.20
2018-09-21T01:05:18.280Z,19.20
2018-09-21T01:07:46.666Z,19.20
2018-09-21T01:10:14.937Z,19.10
2018-09-21T01:12:43.722Z,19.10
2018-09-21T01:15:12.020Z,19.10
2018-09-21T01:17:40.377Z,19.00
2018-09-21T01:20:08.723Z,19.00
2018-09-21T01:22:37.191Z,19.00
2018-09-21T01:25:05.506Z,19.00
2018-09-21T01:30:02.102Z,18.90
2018-09-21T01:32:30.553Z,18.90
2018-09-21T01:34:59.116Z,18.90
2018-09-21T01:37:27.591Z,18.90
2018-09-21T01:39:55.948Z,18.90
2018-09-21T01:42:24.321Z,18.90
2018-09-21T01:44:52.848Z,18.90
2018-09-21T01:47:21.156Z,18.90
2018-09-21T01:49:49.528Z,18.90
2018-09-21T01:52:17.883Z,18.90
2018-09-21T01:54:46.265Z,19.00
2018-09-21T01:57:14.687Z,19.00
2018-09-21T01:59:43.171Z,19.00
2018-09-21T02:02:11.510Z,19.00
2018-09-21T02:04:40.898Z,19.00
2018-09-21T02:07:10.837Z,19.00
2018-09-21T02:09:39.195Z,19.00
2018-09-21T02:12:07.508Z,19.10
2018-09-21T02:14:35.843Z,19.20
2018-09-21T02:17:04.546Z,19.30
2018-09-21T02:19:32.918Z,19.40
2018-09-21T02:22:02.208Z,19.40
2018-09-21T02:24:30.885Z,19.30
2018-09-21T02:26:59.260Z,19.40
2018-09-21T02:29:27.591Z,19.40
2018-09-21T02:31:55.944Z,19.40
2018-09-21T02:34:24.225Z,19.40
2018-09-21T02:36:52.632Z,19.40
2018-09-21T02:39:20.990Z,19.30
2018-09-21T02:41:49.285Z,19.30
2018-09-21T02:44:17.687Z,19.30
2018-09-21T02:46:46.075Z,19.30
2018-09-21T02:49:14.529Z,19.30
2018-09-21T02:51:43.022Z,19.20
2018-09-21T02:54:11.428Z,19.20
2018-09-21T02:56:40.479Z,19.20
2018-09-21T02:59:09.147Z,19.20
2018-09-21T03:01:37.591Z,19.10
2018-09-21T03:04:06.094Z,18.90
2018-09-21T03:06:34.427Z,19.00
2018-09-21T03:09:02.734Z,19.00
2018-09-21T03:11:31.253Z,18.90
2018-09-21T03:16:27.857Z,18.80
2018-09-21T03:18:56.418Z,18.90
2018-09-21T03:21:24.738Z,18.90
2018-09-21T03:23:53.180Z,18.80
2018-09-21T03:26:21.629Z,18.70
2018-09-21T03:28:50.268Z,18.70
2018-09-21T03:31:18.613Z,18.60
2018-09-21T03:33:46.981Z,18.60
2018-09-21T03:36:15.500Z,18.60
2018-09-21T03:38:43.962Z,18.60
2018-09-21T03:41:12.588Z,18.60
2018-09-21T03:43:41.126Z,18.60
2018-09-21T03:46:09.693Z,18.60
2018-09-21T03:48:38.116Z,18.50
2018-09-21T03:51:06.467Z,18.60
2018-09-21T03:53:35.023Z,18.60
2018-09-21T03:56:03.557Z,18.60
2018-09-21T04:01:00.465Z,18.60
2018-09-21T04:03:28.705Z,18.60
2018-09-21T04:05:57.113Z,18.60
2018-09-21T04:08:25.487Z,18.70
2018-09-21T04:10:53.942Z,18.70
2018-09-21T04:13:22.380Z,18.70
2018-09-21T04:15:50.640Z,18.60
2018-09-21T04:18:19.113Z,18.60
2018-09-21T04:20:47.502Z,18.60
2018-09-21T04:23:16.022Z,18.60
2018-09-21T04:25:44.382Z,18.60
2018-09-21T04:28:12.940Z,18.60
2018-09-21T04:30:41.338Z,18.60
2018-09-21T04:33:09.841Z,18.70
2018-09-21T04:35:38.354Z,18.60
2018-09-21T04:38:06.865Z,18.60
2018-09-21T04:40:35.239Z,18.50
2018-09-21T04:43:03.569Z,18.40
2018-09-21T04:45:31.958Z,18.40
2018-09-21T04:48:00.479Z,18.30
2018-09-21T04:50:29.013Z,18.40
2018-09-21T04:52:57.620Z,18.40
2018-09-21T04:55:26.251Z,18.40
2018-09-21T04:57:54.922Z,18.30
2018-09-21T05:00:23.498Z,18.30
2018-09-21T05:02:51.940Z,18.30
2018-09-21T05:05:20.250Z,18.30
2018-09-21T05:07:48.560Z,18.30
2018-09-21T05:10:17.006Z,18.30
2018-09-21T05:12:45.590Z,18.30
2018-09-21T05:15:13.938Z,18.30
2018-09-21T05:17:42.550Z,18.30
2018-09-21T05:20:10.962Z,18.20
2018-09-21T05:22:39.500Z,18.20
2018-09-21T05:25:07.849Z,18.20
2018-09-21T05:27:36.356Z,18.20
2018-09-21T05:30:04.913Z,18.20
2018-09-21T05:32:33.512Z,18.20
2018-09-21T05:35:02.162Z,18.20
2018-09-21T05:37:30.615Z,18.20
2018-09-21T05:39:59.251Z,18.20
2018-09-21T05:42:27.669Z,18.20
2018-09-21T05:44:59.286Z,18.30
2018-09-21T05:47:27.767Z,18.40
2018-09-21T05:50:01.146Z,18.40
2018-09-21T05:52:29.492Z,18.60
2018-09-21T05:54:58.111Z,18.60
2018-09-21T05:57:26.700Z,18.70
2018-09-21T05:59:55.151Z,18.80
2018-09-21T06:02:23.915Z,18.80
2018-09-21T06:04:57.744Z,18.80
2018-09-21T06:07:26.210Z,18.80
2018-09-21T06:12:22.857Z,18.90
2018-09-21T06:14:51.284Z,18.90
2018-09-21T06:17:19.718Z,19.10
2018-09-21T06:22:16.998Z,19.10
2018-09-21T06:24:45.565Z,19.30
2018-09-21T06:27:14.205Z,19.30
2018-09-21T06:29:42.861Z,19.40
2018-09-21T06:32:11.330Z,19.50
2018-09-21T06:34:39.735Z,19.60
2018-09-21T06:37:08.364Z,19.60
2018-09-21T06:39:36.788Z,19.70
2018-09-21T06:42:05.464Z,19.70
2018-09-21T06:44:33.988Z,19.70
2018-09-21T06:47:02.601Z,19.80
2018-09-21T06:49:30.977Z,19.80
2018-09-21T06:51:59.341Z,19.90
2018-09-21T06:54:28.780Z,19.90
2018-09-21T06:56:57.258Z,19.90
2018-09-21T06:59:25.827Z,20.00
2018-09-21T07:01:54.156Z,20.00
2018-09-21T07:04:22.698Z,20.00
2018-09-21T07:06:51.422Z,20.00
2018-09-21T07:09:20.198Z,20.10
2018-09-21T07:11:48.786Z,20.20
2018-09-21T07:14:17.728Z,20.20
2018-09-21T07:16:46.128Z,20.30
2018-09-21T07:19:14.650Z,20.30
2018-09-21T07:21:43.412Z,20.30
2018-09-21T07:24:11.894Z,20.40
2018-09-21T07:26:40.377Z,20.40
2018-09-21T07:29:08.913Z,20.40
2018-09-21T07:31:37.418Z,20.40
2018-09-21T07:34:06.130Z,20.50
2018-09-21T07:39:03.587Z,20.60
2018-09-21T07:41:32.075Z,20.70
2018-09-21T07:44:01.515Z,20.70
2018-09-21T07:46:30.282Z,20.70
2018-09-21T07:48:58.654Z,20.90
2018-09-21T07:51:26.997Z,20.90
2018-09-21T07:53:55.461Z,21.00
2018-09-21T07:56:23.798Z,21.10
2018-09-21T07:58:52.434Z,21.10
2018-09-21T08:01:20.922Z,21.10
2018-09-21T08:03:50.295Z,21.30
2018-09-21T08:06:19.194Z,21.30
2018-09-21T08:08:47.593Z,21.30
2018-09-21T08:11:16.349Z,21.40
2018-09-21T08:13:44.576Z,21.50
2018-09-21T08:16:13.129Z,21.60
2018-09-21T08:18:41.502Z,21.50
2018-09-21T08:21:09.909Z,21.60
2018-09-21T08:23:38.398Z,21.60
2018-09-21T08:26:07.237Z,21.70
2018-09-21T08:28:35.878Z,21.70
2018-09-21T08:31:04.325Z,21.80
2018-09-21T08:33:32.736Z,21.90
2018-09-21T08:36:01.386Z,21.90
2018-09-21T08:38:29.921Z,22.00
2018-09-21T08:40:58.437Z,22.00
2018-09-21T08:43:26.711Z,22.10
2018-09-21T08:45:55.006Z,22.10
2018-09-21T08:50:51.494Z,22.10
2018-09-21T08:53:21.090Z,22.20
2018-09-21T08:55:49.613Z,22.10
2018-09-21T08:58:18.413Z,22.20
2018-09-21T09:00:46.946Z,22.20
2018-09-21T09:03:16.425Z,22.20
2018-09-21T09:05:50.611Z,22.20
2018-09-21T09:08:19.835Z,22.20
2018-09-21T09:10:49.341Z,22.30
2018-09-21T09:13:18.740Z,22.30
2018-09-21T09:15:47.796Z,22.40
2018-09-21T09:18:16.534Z,22.40
2018-09-21T09:20:44.968Z,22.30
2018-09-21T09:23:13.449Z,22.30
2018-09-21T09:25:41.816Z,22.30
2018-09-21T09:28:10.264Z,22.30
2018-09-21T09:30:39.240Z,22.40
2018-09-21T09:33:07.872Z,22.40
2018-09-21T09:35:36.185Z,22.40
2018-09-21T09:38:06.972Z,22.40
2018-09-21T09:40:35.357Z,22.40
2018-09-21T09:43:04.008Z,22.40
2018-09-21T09:45:32.157Z,22.40
2018-09-21T09:48:00.878Z,22.40
2018-09-21T09:50:29.194Z,22.40
2018-09-21T09:52:58.390Z,22.50
2018-09-21T09:55:26.880Z,22.50
2018-09-21T09:57:55.352Z,22.60
2018-09-21T10:00:29.259Z,22.60
2018-09-21T10:02:57.647Z,22.60
2018-09-21T10:05:26.024Z,22.60
2018-09-21T10:07:54.374Z,22.70
2018-09-21T10:10:25.686Z,22.80
2018-09-21T10:12:54.136Z,22.80
2018-09-21T10:15:22.407Z,22.80
2018-09-21T10:17:50.678Z,22.90
2018-09-21T10:20:18.928Z,22.90
2018-09-21T10:22:47.325Z,22.90
2018-09-21T10:25:15.688Z,23.00
2018-09-21T10:27:44.176Z,23.10
2018-09-21T10:30:12.535Z,23.20
2018-09-21T10:32:40.953Z,23.20
2018-09-21T10:35:09.362Z,23.20
2018-09-21T10:37:37.745Z,23.20
2018-09-21T10:40:06.501Z,23.20
2018-09-21T10:42:34.866Z,23.20
2018-09-21T10:45:03.439Z,23.20
2018-09-21T10:47:31.886Z,23.20
2018-09-21T10:50:00.227Z,23.10
2018-09-21T10:52:28.733Z,23.10
2018-09-21T10:54:58.028Z,23.10
2018-09-21T10:57:26.541Z,23.10
2018-09-21T10:59:54.969Z,23.10
2018-09-21T11:02:23.436Z,23.10
2018-09-21T11:04:51.838Z,23.20
2018-09-21T11:07:21.087Z,23.30
2018-09-21T11:09:49.293Z,23.30
2018-09-21T11:12:17.985Z,23.20
2018-09-21T11:14:46.260Z,23.20
2018-09-21T11:17:14.653Z,23.20
2018-09-21T11:22:11.088Z,23.10
2018-09-21T11:24:39.507Z,23.10
2018-09-21T11:27:07.869Z,23.20
2018-09-21T11:29:38.037Z,23.20
2018-09-21T11:32:07.961Z,23.30
2018-09-21T11:34:36.536Z,23.20
2018-09-21T11:37:05.094Z,23.20
2018-09-21T11:39:33.756Z,23.30
2018-09-21T11:42:02.328Z,23.30
2018-09-21T11:44:31.155Z,23.40
2018-09-21T11:49:27.538Z,23.50
2018-09-21T11:51:56.040Z,23.50
2018-09-21T11:54:24.558Z,23.40
2018-09-21T11:56:53.050Z,23.40
2018-09-21T11:59:21.266Z,23.50
2018-09-21T12:01:49.884Z,23.50
2018-09-21T12:04:18.318Z,23.60
2018-09-21T12:06:46.923Z,23.50
2018-09-21T12:09:15.350Z,23.50
2018-09-21T12:11:43.906Z,23.50
2018-09-21T12:14:12.563Z,23.50
2018-09-21T12:16:40.929Z,23.60
2018-09-21T12:19:10.072Z,23.60
2018-09-21T12:21:38.465Z,23.60
2018-09-21T12:24:07.001Z,23.50
2018-09-21T12:26:35.517Z,23.50
2018-09-21T12:29:04.155Z,23.40
2018-09-21T12:31:32.571Z,23.30
2018-09-21T12:34:00.818Z,23.30
2018-09-21T12:36:29.267Z,22.90
2018-09-21T12:38:57.769Z,22.70
2018-09-21T12:41:26.315Z,22.60
2018-09-21T12:43:54.881Z,22.50
2018-09-21T12:48:55.810Z,22.20
2018-09-21T12:51:26.149Z,21.90
2018-09-21T12:53:55.244Z,21.70
2018-09-21T12:58:53.350Z,21.60
2018-09-21T13:01:21.893Z,21.50
2018-09-21T13:03:50.663Z,21.50
2018-09-21T13:06:19.060Z,21.30
2018-09-21T13:08:47.729Z,21.20
2018-09-21T13:11:17.097Z,21.10
2018-09-21T13:13:45.878Z,21.00
2018-09-21T13:16:14.940Z,19.80
2018-09-21T13:18:43.323Z,18.30
2018-09-21T13:21:11.929Z,18.20
2018-09-21T13:23:40.215Z,16.20
2018-09-21T13:26:09.255Z,14.80
2018-09-21T13:28:40.789Z,15.70
2018-09-21T13:31:09.524Z,15.50
2018-09-21T13:33:39.745Z,15.30
2018-09-21T13:36:08.390Z,15.30
2018-09-21T13:38:36.886Z,15.20
2018-09-21T13:43:34.244Z,15.20
2018-09-21T13:46:02.647Z,15.00
2018-09-21T13:48:30.940Z,15.00
2018-09-21T13:53:27.522Z,14.80
2018-09-21T13:55:56.089Z,14.90
2018-09-21T13:58:24.704Z,14.90
2018-09-21T14:00:53.739Z,14.90
2018-09-21T14:03:22.185Z,14.90
2018-09-21T14:05:50.715Z,14.90
2018-09-21T14:08:19.362Z,14.80
2018-09-21T14:10:47.822Z,14.80
2018-09-21T14:13:16.692Z,14.80
2018-09-21T14:15:45.137Z,14.90
2018-09-21T14:18:13.802Z,14.80
2018-09-21T14:20:42.443Z,14.80
2018-09-21T14:23:11.861Z,14.90
2018-09-21T14:25:40.284Z,15.00
2018-09-21T14:30:37.106Z,14.90
2018-09-21T14:33:05.755Z,14.90
2018-09-21T14:35:34.059Z,14.90
2018-09-21T14:38:02.378Z,14.80
2018-09-21T14:40:30.843Z,14.90
2018-09-21T14:42:59.184Z,15.10
2018-09-21T14:45:27.562Z,15.10
2018-09-21T14:47:56.532Z,15.20
2018-09-21T14:50:25.090Z,15.30
2018-09-21T14:52:53.643Z,15.30
2018-09-21T14:55:22.180Z,15.20
2018-09-21T14:57:50.561Z,15.30
2018-09-21T15:00:20.770Z,15.40
2018-09-21T15:02:49.382Z,15.50
2018-09-21T15:05:17.841Z,15.50
2018-09-21T15:07:46.367Z,15.40
2018-09-21T15:10:15.639Z,15.50
2018-09-21T15:12:44.158Z,15.50
2018-09-21T15:15:17.152Z,15.60
2018-09-21T15:20:14.975Z,15.60
2018-09-21T15:22:43.397Z,15.70
2018-09-21T15:25:11.933Z,15.80
2018-09-21T15:30:09.143Z,16.40
2018-09-21T15:32:37.747Z,17.00
2018-09-21T15:35:06.503Z,16.90
2018-09-21T15:37:35.261Z,17.90
2018-09-21T15:40:03.943Z,19.60
2018-09-21T15:42:32.496Z,20.30
2018-09-21T15:45:01.290Z,20.10
2018-09-21T15:47:29.851Z,20.00
2018-09-21T15:49:58.411Z,17.30
2018-09-21T15:52:26.821Z,16.90
2018-09-21T15:54:55.544Z,16.90
2018-09-21T15:57:24.115Z,16.60
2018-09-21T15:59:52.583Z,16.70
2018-09-21T16:02:21.005Z,16.70
2018-09-21T16:04:49.747Z,16.80
2018-09-21T16:07:18.384Z,16.50
2018-09-21T16:09:47.069Z,16.50
2018-09-21T16:12:15.807Z,16.50
2018-09-21T16:14:44.420Z,16.60
2018-09-21T16:17:12.694Z,16.60
2018-09-21T16:19:41.113Z,16.60
2018-09-21T16:22:09.670Z,16.70
2018-09-21T16:24:38.147Z,16.70
2018-09-21T16:27:06.964Z,16.70
2018-09-21T16:29:35.470Z,16.50
2018-09-21T16:32:04.743Z,16.40
2018-09-21T16:34:33.207Z,16.30
2018-09-21T16:37:01.843Z,16.30
2018-09-21T16:39:30.204Z,16.20
2018-09-21T16:41:58.670Z,16.20
2018-09-21T16:44:27.155Z,16.10
2018-09-21T16:46:55.839Z,16.10
2018-09-21T16:49:24.263Z,16.10
2018-09-21T16:51:52.694Z,16.00
2018-09-21T16:54:21.181Z,16.00
2018-09-21T16:56:49.945Z,16.00
2018-09-21T16:59:18.912Z,15.90
2018-09-21T17:01:47.766Z,15.90
2018-09-21T17:04:16.355Z,15.90
2018-09-21T17:06:47.152Z,15.90
2018-09-21T17:09:16.826Z,15.90
2018-09-21T17:11:45.562Z,15.90
2018-09-21T17:14:14.086Z,16.00
2018-09-21T17:16:42.536Z,16.00
2018-09-21T17:19:11.039Z,15.90
2018-09-21T17:21:39.565Z,15.90
2018-09-21T17:24:08.537Z,15.90
2018-09-21T17:26:37.039Z,15.90
2018-09-21T17:29:06.231Z,15.80
2018-09-21T17:31:34.763Z,15.70
2018-09-21T17:34:03.570Z,15.70
2018-09-21T17:36:32.241Z,15.60
2018-09-21T17:39:00.893Z,15.60
2018-09-21T17:41:30.928Z,15.50
2018-09-21T17:43:59.235Z,15.50
2018-09-21T17:48:55.743Z,15.40
2018-09-21T17:53:52.636Z,15.40
2018-09-21T17:56:21.182Z,15.40
2018-09-21T17:58:49.764Z,15.40
2018-09-21T18:01:18.154Z,15.30
2018-09-21T18:03:46.897Z,15.20
2018-09-21T18:06:15.352Z,15.20
2018-09-21T18:08:43.967Z,15.30
2018-09-21T18:11:12.383Z,15.30
2018-09-21T18:13:40.654Z,15.20
2018-09-21T18:18:37.351Z,15.20
2018-09-21T18:21:05.860Z,15.30
2018-09-21T18:23:34.269Z,15.30
2018-09-21T18:26:02.597Z,15.30
2018-09-21T18:28:31.026Z,15.30
2018-09-21T18:30:59.423Z,15.30
2018-09-21T18:33:27.845Z,15.30
2018-09-21T18:35:56.351Z,15.30
2018-09-21T18:38:24.805Z,15.40
2018-09-21T18:40:53.382Z,15.40
2018-09-21T18:43:22.652Z,15.40
2018-09-21T18:45:51.156Z,15.30
2018-09-21T18:48:19.505Z,15.30
2018-09-21T18:50:48.286Z,15.30
2018-09-21T18:53:16.546Z,15.30
2018-09-21T18:55:44.967Z,15.30
2018-09-21T18:58:13.498Z,15.40
2018-09-21T19:00:41.850Z,15.30
2018-09-21T19:03:10.648Z,15.30
2018-09-21T19:05:39.222Z,15.30
2018-09-21T19:08:07.976Z,15.20
2018-09-21T19:10:37.308Z,15.10
2018-09-21T19:13:05.752Z,15.10
2018-09-21T19:15:34.223Z,15.00
2018-09-21T19:18:02.718Z,15.00
2018-09-21T19:20:31.425Z,15.00
2018-09-21T19:23:00.263Z,15.00
2018-09-21T19:25:28.877Z,15.10
2018-09-21T19:27:57.575Z,15.00
2018-09-21T19:30:26.354Z,15.00
2018-09-21T19:32:54.759Z,15.00
2018-09-21T19:35:23.443Z,15.00
2018-09-21T19:40:20.487Z,15.00
2018-09-21T19:42:49.067Z,15.00
2018-09-21T19:45:17.578Z,15.00
2018-09-21T19:47:46.219Z,15.00
2018-09-21T19:52:43.050Z,14.90
2018-09-21T19:55:11.801Z,14.90
2018-09-21T19:57:40.379Z,14.90
2018-09-21T20:00:08.916Z,14.80
2018-09-21T20:02:37.823Z,14.70
2018-09-21T20:05:06.792Z,14.70
2018-09-21T20:07:35.810Z,14.80
2018-09-21T20:10:04.380Z,14.90
2018-09-21T20:12:32.833Z,14.70
2018-09-21T20:15:01.094Z,14.70
2018-09-21T20:17:29.859Z,14.80
2018-09-21T20:19:58.487Z,14.70
2018-09-21T20:22:27.393Z,14.80
2018-09-21T20:24:56.062Z,14.70
2018-09-21T20:27:24.633Z,14.70
2018-09-21T20:29:57.444Z,14.80
2018-09-21T20:35:00.021Z,14.70
2018-09-21T20:37:28.455Z,14.70
2018-09-21T20:39:56.763Z,14.60
2018-09-21T20:42:25.249Z,14.60
2018-09-21T20:44:53.855Z,14.60
2018-09-21T20:47:22.292Z,14.50
2018-09-21T20:49:50.587Z,14.40
2018-09-21T20:52:19.351Z,14.40
2018-09-21T20:54:47.736Z,14.40
2018-09-21T20:57:16.019Z,14.40
2018-09-21T20:59:44.639Z,14.40
2018-09-21T21:02:12.949Z,14.50
2018-09-21T21:04:41.950Z,14.40
2018-09-21T21:07:10.706Z,14.50
2018-09-21T21:09:39.034Z,14.40
2018-09-21T21:12:07.497Z,14.40
2018-09-21T21:14:36.161Z,14.40
2018-09-21T21:17:04.587Z,14.30
2018-09-21T21:19:32.900Z,14.40
2018-09-21T21:22:01.221Z,14.40
2018-09-21T21:24:30.027Z,14.40
2018-09-21T21:29:31.422Z,14.40
2018-09-21T21:31:59.863Z,14.40
2018-09-21T21:34:28.133Z,14.40
2018-09-21T21:39:24.589Z,14.30
2018-09-21T21:41:52.866Z,14.30
2018-09-21T21:44:21.934Z,14.30
2018-09-21T21:46:50.175Z,14.30
2018-09-21T21:49:18.542Z,14.30
2018-09-21T21:51:46.797Z,14.20
2018-09-21T21:54:15.134Z,14.20
2018-09-21T21:56:43.583Z,14.20
2018-09-21T21:59:11.980Z,14.20
2018-09-21T22:01:46.707Z,14.10
2018-09-21T22:04:16.407Z,14.10
2018-09-21T22:06:44.721Z,14.10
2018-09-21T22:09:13.154Z,14.10
2018-09-21T22:11:46.936Z,14.10
2018-09-21T22:14:15.338Z,14.20
2018-09-21T22:16:43.638Z,14.10
2018-09-21T22:19:12.242Z,14.10
2018-09-21T22:21:40.516Z,14.10
2018-09-21T22:24:09.477Z,14.00
2018-09-21T22:26:37.768Z,14.00
2018-09-21T22:29:06.130Z,13.90
2018-09-21T22:31:34.405Z,13.90
2018-09-21T22:34:02.814Z,13.90
2018-09-21T22:36:31.093Z,13.80
2018-09-21T22:38:59.333Z,13.80
2018-09-21T22:41:27.731Z,13.80
2018-09-21T22:43:56.094Z,13.70
2018-09-21T22:46:24.388Z,13.80
2018-09-21T22:48:53.523Z,13.80
2018-09-21T22:51:21.810Z,13.80
2018-09-21T22:53:50.098Z,13.70
2018-09-21T22:56:18.607Z,13.70
2018-09-21T22:58:46.891Z,13.70
2018-09-21T23:01:15.500Z,13.50
2018-09-21T23:03:43.967Z,13.40
2018-09-21T23:06:12.247Z,13.40
2018-09-21T23:08:40.833Z,13.30
2018-09-21T23:11:09.218Z,13.30
2018-09-21T23:13:37.550Z,13.30
2018-09-21T23:16:06.407Z,13.20
2018-09-21T23:18:34.728Z,13.20
2018-09-21T23:21:03.158Z,13.20
2018-09-21T23:23:31.426Z,13.10
2018-09-21T23:25:59.736Z,13.10
2018-09-21T23:28:28.024Z,13.10
2018-09-21T23:33:24.599Z,13.00
2018-09-21T23:35:53.073Z,13.00
2018-09-21T23:38:21.568Z,13.00
2018-09-21T23:43:18.140Z,12.90
2018-09-21T23:45:46.407Z,12.90
2018-09-21T23:48:14.804Z,12.80
2018-09-21T23:50:43.296Z,12.90
2018-09-21T23:53:11.902Z,12.80
2018-09-21T23:55:40.288Z,12.80
2018-09-21T23:58:08.546Z,12.80
